Fort Branch, Indiana
Current Conditions -  °F | °C
As of 3:54 AM on Sunday 21 Dec 2014 (Local Time) from KEVV Reporting Station
Haze Haze  
Wind Chill: 23°   Ceiling: Unl
Heat Index: 28°   Visibility: 5mi
Dew Point: 24°   Wind: 5mph
Humidity: 85%   Direction: 30°NNE
Pressure: 30.28"   Gusts: NA
Location:  38.25°N, 87.58°W
Report Text: KEVV 210954Z AUTO 03004KT 5SM BR CLR M02/M04 A3028 RMK AO2 SLP259 T10221044
Loading
Personal Weather Stations






























Interactive Weather Map New forecast layout! Learn more

10-Day Weather Forecast

Advertisements
Track Severe Weather on mobile